In Amenas, Algeria
Current Conditions -  °F | °C
As of 11:00 AM on Saturday 25 Oct 2014 (Local Time) from DAUZ Reporting Station
Clear Clear  
Wind Chill: 24°   Ceiling: Unl
Heat Index: 24°   Visibility: 6mi
Dew Point:   Wind: 9mph
Humidity: 24%   Direction: 90°E
Pressure: 30.12"   Gusts: NA
Location:  28.05°N, 9.56°E
Report Text: DAUZ 251000Z 09008KT 060V120 CAVOK 24/02 Q1020
Loading
Personal Weather Stations






























Interactive Weather Map
Tropical Storm Tracking
New forecast layout! Learn more

10-Day Weather Forecast

Advertisements
Track Severe Weather on mobile